C. Angelo — WCZ5866 — position and weather

sailwx.info

Track history (hours):
 
Tides and Currents Weather Stations Pressure Air Temp Water Temp Dewpoint Dewpoint Depression Visibility Wind Speed Wind Dir Waves Ship Positions

C. Angelo

Owner: G T 110 INC, NEW HAVEN, CT. More information available from US FCC via Universal Licensing System and Coast Guard Vessel Documentation Center.

Last reported at 2014-Oct-01 15:16 UTC. Time now 2014-Oct-01 22:20 UTC.
Position N 39°38' W 073°60'.

Length 30 m; draft 4.1 m.

Type: Tug. MMSI: 366988420.

Date/timePositionNaut miles runAvg speedWind from/ knotsBaromVisibWave heightAir tempDewpointWater temp
2014-Oct-01 15:16N 39°38' W 073°60'7 9.6
2014-Oct-01 14:32N 39°44' W 073°56'19 9.2
2014-Oct-01 12:30N 39°59' W 073°40'49 9.7
2014-Oct-01 07:28N 40°34' W 072°56'11 9.6
2014-Oct-01 06:19N 40°40' W 072°44'7 9.6
2014-Oct-01 05:33N 40°43' W 072°36'10 9.6
2014-Oct-01 04:33N 40°47' W 072°24'10 9.7
2014-Oct-01 03:33N 40°52' W 072°13'1010.1
2014-Oct-01 02:33N 40°56' W 072°01'1010.3
2014-Oct-01 01:33N 41°00' W 071°48'1010.1
2014-Oct-01 00:33N 41°09' W 071°42'9 8.7
2014-Sep-30 23:33N 41°16' W 071°35'8 8.3
2014-Sep-30 22:33N 41°21' W 071°27'9 9.0
2014-Sep-30 21:33N 41°29' W 071°21'9 9.1
2014-Sep-30 20:33N 41°38' W 071°18'8 8.3
2014-Sep-30 19:34N 41°46' W 071°23'2 2.3
2014-Sep-30 18:34N 41°48' W 071°24'0 0.0
2014-Sep-30 17:33N 41°48' W 071°23'0 0.0
2014-Sep-30 16:34N 41°48' W 071°23'0 0.0
2014-Sep-30 15:33N 41°48' W 071°23'0 0.0
2014-Sep-30 14:34N 41°48' W 071°23'0 0.0
2014-Sep-30 13:34N 41°48' W 071°23'0 0.1
2014-Sep-30 12:32N 41°48' W 071°23'0 0.0
2014-Sep-30 11:33N 41°48' W 071°23'0 0.0
2014-Sep-30 10:19N 41°48' W 071°23'0 0.0
2014-Sep-30 09:33N 41°48' W 071°23'0 0.0
2014-Sep-30 08:33N 41°48' W 071°23'0 0.0
2014-Sep-30 07:33N 41°48' W 071°23'0 0.0
2014-Sep-30 06:33N 41°48' W 071°23'0 0.0
2014-Sep-30 05:34N 41°48' W 071°23'0 0.0
2014-Sep-30 04:33N 41°48' W 071°23'0 0.0
2014-Sep-30 03:33N 41°48' W 071°23'0 0.0
2014-Sep-30 02:32N 41°48' W 071°23'0 0.0
2014-Sep-30 00:34N 41°48' W 071°23'0 0.0
2014-Sep-29 23:29N 41°48' W 071°23'0 0.1
2014-Sep-29 22:34N 41°48' W 071°23'0 0.0
2014-Sep-29 21:34N 41°48' W 071°23'0 0.0
2014-Sep-29 19:28N 41°48' W 071°23'0 0.0
2014-Sep-29 18:34N 41°48' W 071°23'0 0.0
2014-Sep-29 17:09N 41°48' W 071°23'0 0.0
2014-Sep-29 14:33N 41°48' W 071°23'0 0.0
2014-Sep-29 13:27N 41°48' W 071°23'0 0.0
2014-Sep-29 12:26N 41°48' W 071°23'0 0.0
2014-Sep-29 11:33N 41°48' W 071°23'0 0.0
2014-Sep-29 10:33N 41°48' W 071°23'0 0.0
2014-Sep-29 09:31N 41°48' W 071°23'0 0.0
2014-Sep-29 08:31N 41°48' W 071°23'0 0.0
2014-Sep-29 07:33N 41°48' W 071°23'0 0.0
2014-Sep-29 06:33N 41°48' W 071°23'0 0.0
2014-Sep-29 05:33N 41°48' W 071°23'0 0.0
2014-Sep-29 04:33N 41°48' W 071°23'0 0.0
2014-Sep-29 03:33N 41°48' W 071°23'0 0.0
2014-Sep-29 02:33N 41°48' W 071°23'0 0.0
2014-Sep-29 01:33N 41°48' W 071°23'0 0.0
2014-Sep-29 00:33N 41°48' W 071°23'0 0.0
2014-Sep-28 23:33N 41°48' W 071°23'1 1.1
2014-Sep-28 22:33N 41°47' W 071°22'6 5.9
2014-Sep-28 21:33N 41°42' W 071°19'6 6.2
2014-Sep-28 20:33N 41°36' W 071°18'5 4.9
2014-Sep-28 19:33N 41°31' W 071°21'4 3.8
2014-Sep-28 18:33N 41°28' W 071°23'6 6.3
2014-Sep-28 17:33N 41°22' W 071°26'6 5.8
2014-Sep-28 16:33N 41°18' W 071°32'6 6.2
2014-Sep-28 15:33N 41°17' W 071°40'6 6.2
2014-Sep-28 14:33N 41°16' W 071°48'6 6.4
2014-Sep-28 13:33N 41°15' W 071°56'7 7.0
2014-Sep-28 12:33N 41°15' W 072°06'8 8.1
2014-Sep-28 11:34N 41°13' W 072°16'8 8.4
2014-Sep-28 10:33N 41°11' W 072°27'8 8.1
2014-Sep-28 09:34N 41°11' W 072°38'8 7.7
2014-Sep-28 08:33N 41°12' W 072°48'6 6.1
2014-Sep-28 07:33N 41°11' W 072°56'6 6.1
2014-Sep-28 06:34N 41°08' W 073°03'6 5.7
2014-Sep-28 05:34N 41°06' W 073°10'6 5.6
2014-Sep-28 04:33N 41°04' W 073°17'6 6.2
2014-Sep-28 03:33N 41°01' W 073°24'6 6.2
2014-Sep-28 02:34N 40°58' W 073°31'7 6.6
2014-Sep-28 01:33N 40°55' W 073°39'7 6.6
2014-Sep-28 00:33N 40°51' W 073°46'4 3.5
2014-Sep-27 23:33N 40°48' W 073°49'6 5.7
2014-Sep-27 22:30N 40°46' W 073°57'4 4.4
2014-Sep-27 21:33N 40°42' W 073°59'4 3.7
2014-Sep-27 20:33N 40°40' W 074°02'1 1.0
2014-Sep-27 19:32N 40°39' W 074°03'1 1.0
2014-Sep-27 18:14N 40°37' W 074°03'3 2.6
2014-Sep-27 17:13N 40°35' W 074°02'9 4.6
2014-Sep-27 15:14N 40°28' W 073°54'4 5.4
2014-Sep-27 14:33N 40°24' W 073°54'6 6.4
2014-Sep-27 13:33N 40°18' W 073°55'6 6.4
2014-Sep-27 12:33N 40°12' W 073°55'6 6.2
2014-Sep-27 11:33N 40°06' W 073°56'6 6.2
2014-Sep-27 10:33N 39°59' W 073°57'6 6.3
2014-Sep-27 09:34N 39°53' W 073°57'6 6.2
2014-Sep-27 08:33N 39°47' W 073°58'6 6.0
2014-Sep-27 07:34N 39°41' W 074°00'6 6.0
2014-Sep-27 06:34N 39°36' W 074°04'6 6.0
2014-Sep-27 05:34N 39°30' W 074°07'6 6.0
2014-Sep-27 04:33N 39°25' W 074°10'6 6.0
2014-Sep-27 03:34N 39°19' W 074°13'6 6.1
2014-Sep-27 02:34N 39°14' W 074°17'6 6.0
2014-Sep-27 01:34N 39°09' W 074°20'6 5.7
2014-Sep-27 00:30N 39°03' W 074°23'5 5.2
2014-Sep-26 23:33N 38°59' W 074°26'6 4.6
2014-Sep-26 22:14N 38°53' W 074°29'7 4.3
2014-Sep-26 20:33N 38°47' W 074°33'  
Track history (hours):
 
Tides and Currents Weather Stations Pressure Air Temp Water Temp Dewpoint Dewpoint Depression Visibility Wind Speed Wind Dir Waves Ship Positions

C. Angelo

Owner: G T 110 INC, NEW HAVEN, CT. More information available from US FCC via Universal Licensing System and Coast Guard Vessel Documentation Center.

Last reported at 2014-Oct-01 15:16 UTC. Time now 2014-Oct-01 22:20 UTC.
Position N 39°38' W 073°60'.

Length 30 m; draft 4.1 m.

Type: Tug. MMSI: 366988420.

Date/timePositionNaut miles runAvg speedWind from/ knotsBaromVisibWave heightAir tempDewpointWater temp
2014-Oct-01 15:16N 39°38' W 073°60'7 9.6
2014-Oct-01 14:32N 39°44' W 073°56'19 9.2
2014-Oct-01 12:30N 39°59' W 073°40'49 9.7
2014-Oct-01 07:28N 40°34' W 072°56'11 9.6
2014-Oct-01 06:19N 40°40' W 072°44'7 9.6
2014-Oct-01 05:33N 40°43' W 072°36'10 9.6
2014-Oct-01 04:33N 40°47' W 072°24'10 9.7
2014-Oct-01 03:33N 40°52' W 072°13'1010.1
2014-Oct-01 02:33N 40°56' W 072°01'1010.3
2014-Oct-01 01:33N 41°00' W 071°48'1010.1
2014-Oct-01 00:33N 41°09' W 071°42'9 8.7
2014-Sep-30 23:33N 41°16' W 071°35'8 8.3
2014-Sep-30 22:33N 41°21' W 071°27'9 9.0
2014-Sep-30 21:33N 41°29' W 071°21'9 9.1
2014-Sep-30 20:33N 41°38' W 071°18'8 8.3
2014-Sep-30 19:34N 41°46' W 071°23'2 2.3
2014-Sep-30 18:34N 41°48' W 071°24'0 0.0
2014-Sep-30 17:33N 41°48' W 071°23'0 0.0
2014-Sep-30 16:34N 41°48' W 071°23'0 0.0
2014-Sep-30 15:33N 41°48' W 071°23'0 0.0
2014-Sep-30 14:34N 41°48' W 071°23'0 0.0
2014-Sep-30 13:34N 41°48' W 071°23'0 0.1
2014-Sep-30 12:32N 41°48' W 071°23'0 0.0
2014-Sep-30 11:33N 41°48' W 071°23'0 0.0
2014-Sep-30 10:19N 41°48' W 071°23'0 0.0
2014-Sep-30 09:33N 41°48' W 071°23'0 0.0
2014-Sep-30 08:33N 41°48' W 071°23'0 0.0
2014-Sep-30 07:33N 41°48' W 071°23'0 0.0
2014-Sep-30 06:33N 41°48' W 071°23'0 0.0
2014-Sep-30 05:34N 41°48' W 071°23'0 0.0
2014-Sep-30 04:33N 41°48' W 071°23'0 0.0
2014-Sep-30 03:33N 41°48' W 071°23'0 0.0
2014-Sep-30 02:32N 41°48' W 071°23'0 0.0
2014-Sep-30 00:34N 41°48' W 071°23'0 0.0
2014-Sep-29 23:29N 41°48' W 071°23'0 0.1
2014-Sep-29 22:34N 41°48' W 071°23'0 0.0
2014-Sep-29 21:34N 41°48' W 071°23'0 0.0
2014-Sep-29 19:28N 41°48' W 071°23'0 0.0
2014-Sep-29 18:34N 41°48' W 071°23'0 0.0
2014-Sep-29 17:09N 41°48' W 071°23'0 0.0
2014-Sep-29 14:33N 41°48' W 071°23'0 0.0
2014-Sep-29 13:27N 41°48' W 071°23'0 0.0
2014-Sep-29 12:26N 41°48' W 071°23'0 0.0
2014-Sep-29 11:33N 41°48' W 071°23'0 0.0
2014-Sep-29 10:33N 41°48' W 071°23'0 0.0
2014-Sep-29 09:31N 41°48' W 071°23'0 0.0
2014-Sep-29 08:31N 41°48' W 071°23'0 0.0
2014-Sep-29 07:33N 41°48' W 071°23'0 0.0
2014-Sep-29 06:33N 41°48' W 071°23'0 0.0
2014-Sep-29 05:33N 41°48' W 071°23'0 0.0
2014-Sep-29 04:33N 41°48' W 071°23'0 0.0
2014-Sep-29 03:33N 41°48' W 071°23'0 0.0
2014-Sep-29 02:33N 41°48' W 071°23'0 0.0
2014-Sep-29 01:33N 41°48' W 071°23'0 0.0
2014-Sep-29 00:33N 41°48' W 071°23'0 0.0
2014-Sep-28 23:33N 41°48' W 071°23'1 1.1
2014-Sep-28 22:33N 41°47' W 071°22'6 5.9
2014-Sep-28 21:33N 41°42' W 071°19'6 6.2
2014-Sep-28 20:33N 41°36' W 071°18'5 4.9
2014-Sep-28 19:33N 41°31' W 071°21'4 3.8
2014-Sep-28 18:33N 41°28' W 071°23'6 6.3
2014-Sep-28 17:33N 41°22' W 071°26'6 5.8
2014-Sep-28 16:33N 41°18' W 071°32'6 6.2
2014-Sep-28 15:33N 41°17' W 071°40'6 6.2
2014-Sep-28 14:33N 41°16' W 071°48'6 6.4
2014-Sep-28 13:33N 41°15' W 071°56'7 7.0
2014-Sep-28 12:33N 41°15' W 072°06'8 8.1
2014-Sep-28 11:34N 41°13' W 072°16'8 8.4
2014-Sep-28 10:33N 41°11' W 072°27'8 8.1
2014-Sep-28 09:34N 41°11' W 072°38'8 7.7
2014-Sep-28 08:33N 41°12' W 072°48'6 6.1
2014-Sep-28 07:33N 41°11' W 072°56'6 6.1
2014-Sep-28 06:34N 41°08' W 073°03'6 5.7
2014-Sep-28 05:34N 41°06' W 073°10'6 5.6
2014-Sep-28 04:33N 41°04' W 073°17'6 6.2
2014-Sep-28 03:33N 41°01' W 073°24'6 6.2
2014-Sep-28 02:34N 40°58' W 073°31'7 6.6
2014-Sep-28 01:33N 40°55' W 073°39'7 6.6
2014-Sep-28 00:33N 40°51' W 073°46'4 3.5
2014-Sep-27 23:33N 40°48' W 073°49'6 5.7
2014-Sep-27 22:30N 40°46' W 073°57'4 4.4
2014-Sep-27 21:33N 40°42' W 073°59'4 3.7
2014-Sep-27 20:33N 40°40' W 074°02'1 1.0
2014-Sep-27 19:32N 40°39' W 074°03'1 1.0
2014-Sep-27 18:14N 40°37' W 074°03'3 2.6
2014-Sep-27 17:13N 40°35' W 074°02'9 4.6
2014-Sep-27 15:14N 40°28' W 073°54'4 5.4
2014-Sep-27 14:33N 40°24' W 073°54'6 6.4
2014-Sep-27 13:33N 40°18' W 073°55'6 6.4
2014-Sep-27 12:33N 40°12' W 073°55'6 6.2
2014-Sep-27 11:33N 40°06' W 073°56'6 6.2
2014-Sep-27 10:33N 39°59' W 073°57'6 6.3
2014-Sep-27 09:34N 39°53' W 073°57'6 6.2
2014-Sep-27 08:33N 39°47' W 073°58'6 6.0
2014-Sep-27 07:34N 39°41' W 074°00'6 6.0
2014-Sep-27 06:34N 39°36' W 074°04'6 6.0
2014-Sep-27 05:34N 39°30' W 074°07'6 6.0
2014-Sep-27 04:33N 39°25' W 074°10'6 6.0
2014-Sep-27 03:34N 39°19' W 074°13'6 6.1
2014-Sep-27 02:34N 39°14' W 074°17'6 6.0
2014-Sep-27 01:34N 39°09' W 074°20'6 5.7
2014-Sep-27 00:30N 39°03' W 074°23'5 5.2
2014-Sep-26 23:33N 38°59' W 074°26'6 4.6
2014-Sep-26 22:14N 38°53' W 074°29'7 4.3
2014-Sep-26 20:33N 38°47' W 074°33'  

Dump ship's entire track history